Johns Island, SC (29455)

3:36 AM EST on March 02, 2015 (GMT -0500)
Mingo Point | Change Station
CLOSE
Current Station
Personal Weather Station
Location: Kiawah Island, SC
Elevation: 12 ft
Nearby Weather Stations
Active Advisory: Dense Fog Advisory

Elev 12 ft 32.60 °N, 80.13 °W | Updated 21 seconds ago

Fog
Fog
45.7 °F
Feels Like 46 °F
N
1.0
Wind Variable Wind from West
Gusts 2.0 mph

Today
High -- | Low -- °F
--% Chance of Precip.
Yesterday
High -- | Low -- °F
Precip. -- in
6:47 AM 6:18 PM
Waxing Gibbous, 90% visible
Pressure 30.31 in
Visibility 0.5 miles
Clouds Overcast 100 ft
Windchill 46 °F
Dew Point 45 °F
Humidity 98%
Rainfall 0.00 in
Snow Depth Not available.
UV 0.0 out of 12
Pollen 2.00 out of 12
Air Quality Not available.
Flu Activity Not available.
METAR KJZI 020835Z AUTO 00000KT 1/2SM FG OVC001 07/07 A3031 RMK A02 P000

More Conditions Fewer Conditions

Pressure 30.31 in
Visibility 0.5 miles
Clouds Overcast 100 ft
Windchill 46 °F
Dew Point 45 °F
Humidity 98%
Rainfall 0.00 in
Snow Depth Not available.
UV 0.0 out of 12
Pollen 2.00 out of 12
Air Quality Not available.
Flu Activity Not available.
METAR KJZI 020835Z AUTO 00000KT 1/2SM FG OVC001 07/07 A3031 RMK A02 P000

More Conditions Fewer Conditions

10-Day Weather Forecast

Almanac

Astronomy

Mar. 02, 2015 Rise Set
Actual Time
Civil Twilight
Nautical Twilight
Astronomical Twilight
Moon
Length of Visible Light
Length of Day
Tomorrow will be .
, % of the Moon is Illuminated

Today's Extremes

State Highs State Lows

Community

WunderPhotos

Upload Photos

1,801,751 photos uploaded!

WunderBlogs® & News

Nearby

Air Quality

  Air Quality AQ Index Pollutant
Not available.

Snow Depth

Station Depth Elevation

Earthquake Activity

City Distance Mag. Time & Date
Minimum magnitude displayed is 2.5.

Coastal Water Temperatures

Place Temperature

Nearby Weather Stations

Dense Fog Advisory
Statement as of 3:10 AM EST on March 02, 2015

... Dense fog advisory remains in effect until 10 am EST this
morning...

* visibility... one quarter mile or less.

* Impacts... widespread fog and low visibilities will make travel
difficult.

Precautionary/preparedness actions...

Be prepared for increased travel time. If driving... slow down...
use low beam headlights... and leave plenty of distance ahead of
you in case a sudden stop is needed.